Current Weather

Taunton Municipal Airport

Taunton Municipal Airport, Massachusetts (KTAN)

Report from: Sunday, May 22, 2022 2:52 AM EDT
Current time: Sunday, May 22, 2022 3:33 AM EDT

Nearby weather
Weather history
Weather forecast

Temperature18.3°C (64.9°F)
Dew point16.7°C (62.1°F)
Winds Calm
Visibility9 mi. (14.5 km)
Clouds Sky clear
Altimeter29.99 in.Hg (1016 mB)
Relative humidity90 %
Density altitude570 ft. (174 m)
Sea-level pressure101.6 kPa (1016 mB, 29.99 in.Hg)
Remarks Fully automated report
Automated weather observing station with precipitation discriminator
Flight conditions Visual Meteorological Conditions
Raw dataKTAN 220652Z AUTO 00000KT 9SM CLR 18/17 A2999 RMK AO2 SLP155 T01830167
An error has occurred. This application may no longer respond until reloaded. Reload 🗙